Main page
METAR-TAF:

METAR-TAF

Airports :

Scampton, England

RAF Scampton

latitude: 53-18-27N, longitude: 000-33-03W, elevation: 62 m

Current weather observation

The report was made 43 minutes ago, at 12:50 UTC
Wind 24 kt from the West
Temperature 11°C
Humidity 76%
Pressure 1008 hPa
Visibility 10 km or more

METAR: EGXP 221250Z AUTO 27024KT 9999 // BKN028/// 11/07 Q1008

Time: 14:33 (13:33 UTC)


TAF: missing

Weather observations and forecasts of more than 4000 airports (METAR and TAF reports).

The available stations are represented by yellow and red dots on the map.

Hover mouse over dot to see the name of the station.

Then click to see weather observations and forecasts.

To change the map : click on the green buttons with a black cross to zoom in, on the green button with a dash to zoom out, or on the green arrows for adjacent maps.


METAR-TAF: